Terminal Aerodrome Forecast
Issued by NWS

Home | Current Version | Previous Version | Text Only | Print | Product List | Glossary On
Versions: 1 2 3 4 5 6 7 8 9 10 11 12 13 14
445
FTUS43 KMQT 101739
TAFSAW
TAF
KSAW 101739Z 1018/1118 29008KT P6SM FEW035
     FM110000 24004KT P6SM SCT100
     FM111400 15003KT P6SM OVC050
     FM111700 10004KT 5SM -SN OVC020=

USA.gov is the U.S. government's official web portal to all federal, state and local government web resources and services.